Time;durP1;ratioP1;P1;durP2;ratioP2;P2;SDS_P1;SDS_P2;PMS_P1;PMS_P2;Temp;Humidity;BMP_temperature;BMP_pressure;BME280_temperature;BME280_humidity;BME280_pressure;Samples;Min_cycle;Max_cycle;Signal;HPM_P1;HPM_P2
2023/10/05 00:03:43;;;;;;;0.00;0.00;;;9.50;99.90;;;;;;5094315;28;20176;-59
2023/10/05 00:06:23;;;;;;;0.00;0.00;;;9.50;99.90;;;;;;5094364;28;20172;-59
2023/10/05 00:08:52;;;;;;;0.00;0.00;;;9.50;99.90;;;;;;5092199;28;20668;-60
2023/10/05 00:11:23;;;;;;;0.00;0.00;;;9.50;99.90;;;;;;5094509;28;20180;-60
2023/10/05 00:13:50;;;;;;;0.00;0.00;;;9.50;99.90;;;;;;5093442;28;20180;-60
2023/10/05 00:16:22;;;;;;;0.00;0.00;;;9.50;99.90;;;;;;5094576;28;20234;-60
2023/10/05 00:18:52;;;;;;;0.00;0.00;;;9.50;99.90;;;;;;5094351;28;20234;-60
2023/10/05 00:21:20;;;;;;;0.00;0.00;;;9.50;99.90;;;;;;5094586;28;20227;-61
2023/10/05 00:23:57;;;;;;;0.00;0.00;;;9.50;99.90;;;;;;5093686;28;20168;-61
2023/10/05 00:26:28;;;;;;;0.08;0.08;;;9.50;99.90;;;;;;5094230;28;20222;-60
2023/10/05 00:29:07;;;;;;;0.00;0.00;;;9.50;99.90;;;;;;5094226;28;20207;-60
2023/10/05 00:31:38;;;;;;;0.00;0.00;;;9.50;99.90;;;;;;5094132;28;20184;-60
2023/10/05 00:34:16;;;;;;;0.00;0.00;;;9.50;99.90;;;;;;5092793;28;20223;-60
2023/10/05 00:36:45;;;;;;;0.00;0.00;;;9.50;99.90;;;;;;5094057;28;20688;-61
2023/10/05 00:39:11;;;;;;;0.00;0.00;;;9.50;99.90;;;;;;5093820;28;20255;-60
2023/10/05 00:41:37;;;;;;;0.00;0.00;;;9.50;99.90;;;;;;5093230;28;20285;-60
2023/10/05 00:44:06;;;;;;;0.00;0.00;;;9.50;99.90;;;;;;5093680;28;20283;-60
2023/10/05 00:46:39;;;;;;;0.00;0.00;;;9.50;99.90;;;;;;5093991;28;20279;-60
2023/10/05 00:49:16;;;;;;;0.00;0.00;;;9.50;99.90;;;;;;5093708;28;20172;-60
2023/10/05 00:51:52;;;;;;;0.00;0.00;;;9.50;99.90;;;;;;5093509;28;20186;-60
2023/10/05 00:54:22;;;;;;;0.00;0.00;;;9.40;99.90;;;;;;5093472;28;20699;-60
2023/10/05 00:56:49;;;;;;;0.00;0.00;;;9.40;99.90;;;;;;5093609;28;20704;-59
2023/10/05 00:59:15;;;;;;;0.03;0.03;;;9.40;99.90;;;;;;5093728;28;20176;-59
2023/10/05 01:04:34;;;;;;;0.00;0.00;;;9.40;99.90;;;;;;5093430;28;20269;-60
2023/10/05 01:07:17;;;;;;;0.00;0.00;;;9.40;99.90;;;;;;5093566;28;20188;-60
2023/10/05 01:12:38;;;;;;;0.30;0.13;;;9.30;99.90;;;;;;5093212;28;20172;-59
2023/10/05 01:15:06;;;;;;;0.30;0.30;;;9.30;99.90;;;;;;5093421;28;20236;-59
2023/10/05 01:17:35;;;;;;;0.00;0.00;;;9.30;99.90;;;;;;5093093;28;20201;-60
2023/10/05 01:20:22;;;;;;;0.00;0.00;;;9.30;99.90;;;;;;5093362;28;20265;-60
2023/10/05 01:22:54;;;;;;;0.00;0.00;;;9.30;99.90;;;;;;5093079;28;20251;-60
2023/10/05 01:25:20;;;;;;;0.00;0.00;;;9.30;99.90;;;;;;5092524;28;20167;-60
2023/10/05 01:27:49;;;;;;;0.00;0.00;;;9.30;99.90;;;;;;5092800;28;20653;-60
2023/10/05 01:30:17;;;;;;;0.00;0.00;;;9.40;99.90;;;;;;5093047;28;20214;-60
2023/10/05 01:32:44;;;;;;;0.00;0.00;;;9.40;99.90;;;;;;5093057;28;20180;-61
2023/10/05 01:35:15;;;;;;;0.00;0.00;;;9.40;99.90;;;;;;5092842;28;20184;-60
2023/10/05 01:37:45;;;;;;;0.00;0.00;;;9.40;99.90;;;;;;5091934;28;20683;-60
2023/10/05 01:40:23;;;;;;;0.00;0.00;;;9.40;99.90;;;;;;5092825;28;20215;-60
2023/10/05 01:42:51;;;;;;;0.00;0.00;;;9.40;99.90;;;;;;5092762;28;20217;-60
2023/10/05 01:45:24;;;;;;;0.00;0.00;;;9.30;99.90;;;;;;5092602;28;20180;-60
2023/10/05 01:47:50;;;;;;;0.00;0.00;;;9.40;99.90;;;;;;5092608;28;20678;-60
2023/10/05 01:50:19;;;;;;;0.00;0.00;;;9.40;99.90;;;;;;5092575;28;20196;-60
2023/10/05 01:53:07;;;;;;;0.00;0.00;;;9.40;99.90;;;;;;5092229;28;20172;-60
2023/10/05 01:55:34;;;;;;;0.00;0.00;;;9.40;99.90;;;;;;5092060;28;20184;-60
2023/10/05 01:58:00;;;;;;;0.00;0.00;;;9.30;99.90;;;;;;5076744;28;20172;-60
2023/10/05 02:00:26;;;;;;;0.00;0.00;;;9.30;99.90;;;;;;5092461;28;20294;-60
2023/10/05 02:02:52;;;;;;;0.00;0.00;;;9.30;99.90;;;;;;5092443;28;20271;-60
2023/10/05 02:05:20;;;;;;;0.03;0.03;;;9.30;99.90;;;;;;5092564;28;20176;-60
2023/10/05 02:07:49;;;;;;;0.00;0.00;;;9.30;99.90;;;;;;5092071;28;20607;-61
2023/10/05 02:10:19;;;;;;;0.10;0.10;;;9.30;99.90;;;;;;5092456;28;20176;-60
2023/10/05 02:12:46;;;;;;;0.00;0.00;;;9.30;99.90;;;;;;5091983;28;20646;-60
2023/10/05 02:15:16;;;;;;;0.00;0.00;;;9.20;99.90;;;;;;5092394;28;20226;-60
2023/10/05 02:17:46;;;;;;;0.00;0.00;;;9.20;99.90;;;;;;5092024;28;20172;-60
2023/10/05 02:22:57;;;;;;;0.00;0.00;;;9.20;99.90;;;;;;5092116;28;20561;-60
2023/10/05 02:25:31;;;;;;;0.00;0.00;;;9.20;99.90;;;;;;5091987;28;20184;-60
2023/10/05 02:27:57;;;;;;;0.00;0.00;;;9.20;99.90;;;;;;5091318;28;20176;-60
2023/10/05 02:30:27;;;;;;;0.00;0.00;;;9.20;99.90;;;;;;5092132;28;20190;-60
2023/10/05 02:32:58;;;;;;;0.00;0.00;;;9.20;99.90;;;;;;5092125;28;20267;-60
2023/10/05 02:35:32;;;;;;;0.00;0.00;;;9.20;99.90;;;;;;5091860;28;20631;-60
2023/10/05 02:37:58;;;;;;;0.00;0.00;;;9.20;99.90;;;;;;5091618;28;20292;-59
2023/10/05 02:40:34;;;;;;;0.10;0.10;;;9.20;99.90;;;;;;5090992;28;20248;-59
2023/10/05 02:43:05;;;;;;;0.00;0.00;;;9.20;99.90;;;;;;5091588;28;20623;-59
2023/10/05 02:45:31;;;;;;;0.00;0.00;;;9.20;99.90;;;;;;5091660;28;20271;-60
2023/10/05 02:47:57;;;;;;;0.00;0.00;;;9.20;99.90;;;;;;5091371;28;20188;-60
2023/10/05 02:50:24;;;;;;;0.00;0.00;;;9.30;99.90;;;;;;5091644;28;20225;-60
2023/10/05 02:52:49;;;;;;;0.00;0.00;;;9.30;99.90;;;;;;5091586;28;20176;-60
2023/10/05 02:55:15;;;;;;;0.00;0.00;;;9.30;99.90;;;;;;5079140;28;20667;-60
2023/10/05 02:57:43;;;;;;;0.00;0.00;;;9.30;99.90;;;;;;5088529;28;20184;-60
2023/10/05 03:00:11;;;;;;;0.00;0.00;;;9.30;99.90;;;;;;5075628;28;20204;-60
2023/10/05 03:02:45;;;;;;;0.00;0.00;;;9.30;99.90;;;;;;5090718;28;20184;-60
2023/10/05 03:05:11;;;;;;;0.00;0.00;;;9.40;99.90;;;;;;5091470;28;20209;-60
2023/10/05 03:07:41;;;;;;;0.00;0.00;;;9.40;99.90;;;;;;5091387;28;20223;-60
2023/10/05 03:10:10;;;;;;;0.00;0.00;;;9.40;99.90;;;;;;5091138;28;20655;-60
2023/10/05 03:12:36;;;;;;;0.10;0.10;;;9.40;99.90;;;;;;5091381;28;20195;-60
2023/10/05 03:15:06;;;;;;;0.00;0.00;;;9.50;99.90;;;;;;5091420;28;20187;-60
2023/10/05 03:17:33;;;;;;;0.00;0.00;;;9.50;99.90;;;;;;5091231;28;20191;-60
2023/10/05 03:19:59;;;;;;;0.15;0.15;;;9.50;99.90;;;;;;5089355;28;20348;-60
2023/10/05 03:22:24;;;;;;;0.00;0.00;;;9.50;99.90;;;;;;5091329;28;20267;-60
2023/10/05 03:24:50;;;;;;;0.00;0.00;;;9.50;99.90;;;;;;5091258;28;20180;-60
2023/10/05 03:27:16;;;;;;;0.00;0.00;;;9.50;99.90;;;;;;5091189;28;20672;-60
2023/10/05 03:29:46;;;;;;;0.00;0.00;;;9.50;99.90;;;;;;5091271;28;20207;-60
2023/10/05 03:34:37;;;;;;;0.00;0.00;;;9.50;99.90;;;;;;5090972;28;20188;-60
2023/10/05 03:37:13;;;;;;;0.00;0.00;;;9.50;99.90;;;;;;5090918;28;20206;-61
2023/10/05 03:42:22;;;;;;;0.00;0.00;;;9.50;99.90;;;;;;5091176;28;20172;-60
2023/10/05 03:45:01;;;;;;;0.00;0.00;;;9.50;99.90;;;;;;5090870;28;20210;-61
2023/10/05 03:47:27;;;;;;;0.10;0.10;;;9.50;99.90;;;;;;5082928;28;20540;-61
2023/10/05 03:49:56;;;;;;;0.00;0.00;;;9.50;99.90;;;;;;5111581;28;20262;-62
2023/10/05 03:52:22;;;;;;;0.00;0.00;;;9.50;99.90;;;;;;5111667;28;20323;-63
2023/10/05 03:54:47;;;;;;;0.10;0.10;;;9.50;99.90;;;;;;5094629;28;20184;-61
2023/10/05 03:57:13;;;;;;;0.00;0.00;;;9.50;99.90;;;;;;5091294;28;20173;-63
2023/10/05 03:59:39;;;;;;;0.00;0.00;;;9.50;99.90;;;;;;5091255;28;20536;-61
2023/10/05 04:02:09;;;;;;;0.00;0.00;;;9.60;99.90;;;;;;5091100;28;20199;-61
2023/10/05 04:04:42;;;;;;;0.10;0.10;;;9.60;99.90;;;;;;5089573;28;20565;-59
2023/10/05 04:07:08;;;;;;;0.00;0.00;;;9.60;99.90;;;;;;5090362;28;20214;-59
2023/10/05 04:09:35;;;;;;;0.00;0.00;;;9.60;99.90;;;;;;5089718;28;20631;-60
2023/10/05 04:12:03;;;;;;;0.00;0.00;;;9.60;99.90;;;;;;5090893;28;20267;-59
2023/10/05 04:14:29;;;;;;;0.00;0.00;;;9.50;99.90;;;;;;5091767;28;20206;-60
2023/10/05 04:16:56;;;;;;;0.00;0.00;;;9.50;99.90;;;;;;5094278;28;20207;-60
2023/10/05 04:19:22;;;;;;;0.00;0.00;;;9.60;99.90;;;;;;5094368;28;20200;-60
2023/10/05 04:21:48;;;;;;;0.00;0.00;;;9.60;99.90;;;;;;5094625;28;20682;-59
2023/10/05 04:24:16;;;;;;;0.00;0.00;;;9.60;99.90;;;;;;5094740;28;20181;-59
2023/10/05 04:26:45;;;;;;;0.00;0.00;;;9.50;99.90;;;;;;5094491;28;20172;-59
2023/10/05 04:29:12;;;;;;;0.00;0.00;;;9.50;99.90;;;;;;5094527;28;20694;-59
2023/10/05 04:31:37;;;;;;;0.00;0.00;;;9.50;99.90;;;;;;5094278;28;20192;-59
2023/10/05 04:34:13;;;;;;;0.05;0.05;;;9.50;99.90;;;;;;5094569;28;20194;-59
2023/10/05 04:36:39;;;;;;;0.10;0.10;;;9.50;99.90;;;;;;5094215;28;20172;-59
2023/10/05 04:39:06;;;;;;;0.00;0.00;;;9.50;99.90;;;;;;5094272;28;20215;-59
2023/10/05 04:41:39;;;;;;;0.00;0.00;;;9.50;99.90;;;;;;5094240;28;20207;-59
2023/10/05 04:44:11;;;;;;;0.00;0.00;;;9.50;99.90;;;;;;5094284;28;20164;-59
2023/10/05 04:46:37;;;;;;;0.00;0.00;;;9.60;99.90;;;;;;5092957;28;20532;-59
2023/10/05 04:49:08;;;;;;;0.00;0.00;;;9.60;99.90;;;;;;5094100;28;20250;-59
2023/10/05 04:51:38;;;;;;;0.00;0.00;;;9.60;99.90;;;;;;5094061;28;20213;-59
2023/10/05 04:54:10;;;;;;;0.00;0.00;;;9.60;99.90;;;;;;5094123;28;20172;-59
2023/10/05 04:56:40;;;;;;;0.00;0.00;;;9.70;99.90;;;;;;5094048;28;20644;-58
2023/10/05 05:04:41;;;;;;;0.00;0.00;;;9.70;99.90;;;;;;5093975;28;20180;-58
2023/10/05 05:07:07;;;;;;;0.00;0.00;;;9.70;99.90;;;;;;5094008;28;20184;-59
2023/10/05 05:09:34;;;;;;;0.00;0.00;;;9.60;99.90;;;;;;5093939;28;20196;-59
2023/10/05 05:12:04;;;;;;;0.00;0.00;;;9.60;99.90;;;;;;5093735;28;20263;-59
2023/10/05 05:14:47;;;;;;;0.00;0.00;;;9.60;99.90;;;;;;5093572;28;20245;-59
2023/10/05 05:17:18;;;;;;;0.00;0.00;;;9.60;99.90;;;;;;5093584;28;20270;-59
2023/10/05 05:19:44;;;;;;;0.00;0.00;;;9.60;99.90;;;;;;5093492;28;20196;-59
2023/10/05 05:22:11;;;;;;;0.10;0.10;;;9.50;99.90;;;;;;5093438;28;20180;-58
2023/10/05 05:24:37;;;;;;;0.00;0.00;;;9.50;99.90;;;;;;5093423;28;20184;-58
2023/10/05 05:27:04;;;;;;;0.00;0.00;;;9.60;99.90;;;;;;5092471;28;20237;-59
2023/10/05 05:29:33;;;;;;;0.00;0.00;;;9.50;99.90;;;;;;5093327;28;20179;-58
2023/10/05 05:32:07;;;;;;;0.00;0.00;;;9.60;99.90;;;;;;5093029;28;20176;-59
2023/10/05 05:34:33;;;;;;;0.00;0.00;;;9.60;99.90;;;;;;5093232;28;20203;-59
2023/10/05 05:36:59;;;;;;;0.00;0.00;;;9.60;99.90;;;;;;5093132;28;20226;-59
2023/10/05 05:39:32;;;;;;;0.00;0.00;;;9.60;99.90;;;;;;5092872;28;20220;-58
2023/10/05 05:42:05;;;;;;;0.00;0.00;;;9.60;99.90;;;;;;5093100;28;20259;-59
2023/10/05 05:44:30;;;;;;;0.00;0.00;;;9.60;99.90;;;;;;5093022;28;20169;-59
2023/10/05 05:46:59;;;;;;;0.00;0.00;;;9.60;99.90;;;;;;5093087;28;20180;-59
2023/10/05 05:49:25;;;;;;;0.00;0.00;;;9.60;99.90;;;;;;5091953;28;20184;-59
2023/10/05 05:51:51;;;;;;;0.00;0.00;;;9.70;99.90;;;;;;5092907;28;20589;-59
2023/10/05 05:54:18;;;;;;;0.00;0.00;;;9.70;99.90;;;;;;5092940;28;20172;-59
2023/10/05 05:56:44;;;;;;;0.05;0.05;;;9.70;99.90;;;;;;5092768;28;20183;-58
2023/10/05 05:59:10;;;;;;;0.00;0.00;;;9.80;99.90;;;;;;5091771;28;20180;-58
2023/10/05 06:01:36;;;;;;;0.00;0.00;;;9.80;99.90;;;;;;5092684;28;20223;-59
2023/10/05 06:04:03;;;;;;;0.00;0.00;;;9.80;99.90;;;;;;5092558;28;20658;-58
2023/10/05 06:06:29;;;;;;;0.00;0.00;;;9.80;99.90;;;;;;5092670;28;20271;-58
2023/10/05 06:08:56;;;;;;;0.00;0.00;;;9.80;99.90;;;;;;5092738;28;20267;-59
2023/10/05 06:11:22;;;;;;;0.63;0.45;;;9.90;99.90;;;;;;5092538;28;20183;-59
2023/10/05 06:13:49;;;;;;;0.00;0.00;;;9.90;99.90;;;;;;5092474;28;20535;-59
2023/10/05 06:16:15;;;;;;;0.00;0.00;;;9.90;99.90;;;;;;5092461;28;20643;-59
2023/10/05 06:18:41;;;;;;;0.13;0.13;;;10.00;99.90;;;;;;5092322;28;20222;-59
2023/10/05 06:21:06;;;;;;;0.00;0.00;;;10.00;99.90;;;;;;5092356;28;20212;-59
2023/10/05 06:23:33;;;;;;;0.00;0.00;;;10.00;99.90;;;;;;5092367;28;20662;-58
2023/10/05 06:25:59;;;;;;;0.00;0.00;;;10.00;99.90;;;;;;5092235;28;20164;-59
2023/10/05 06:28:25;;;;;;;0.00;0.00;;;10.10;99.90;;;;;;5092309;28;20656;-58
2023/10/05 06:30:52;;;;;;;3.78;1.13;;;10.20;99.90;;;;;;5092132;28;20233;-59
2023/10/05 06:33:19;;;;;;;0.00;0.00;;;10.20;99.90;;;;;;5092040;28;20204;-58
2023/10/05 06:35:45;;;;;;;0.00;0.00;;;10.30;99.90;;;;;;5092153;28;20205;-58
2023/10/05 06:38:11;;;;;;;0.00;0.00;;;10.40;99.90;;;;;;5091741;28;20216;-58
2023/10/05 06:40:36;;;;;;;0.10;0.10;;;10.50;99.90;;;;;;5090789;28;20215;-58
2023/10/05 06:43:05;;;;;;;0.00;0.00;;;10.60;99.90;;;;;;5092081;28;20164;-58
2023/10/05 06:45:31;;;;;;;0.00;0.00;;;10.60;99.90;;;;;;5091777;28;20233;-58
2023/10/05 06:47:57;;;;;;;0.00;0.00;;;10.70;99.90;;;;;;5091813;28;20179;-59
2023/10/05 06:50:23;;;;;;;0.00;0.00;;;10.80;99.90;;;;;;5090825;28;20713;-58
2023/10/05 06:52:48;;;;;;;0.00;0.00;;;10.90;99.90;;;;;;5091823;28;20180;-58
2023/10/05 06:55:17;;;;;;;0.00;0.00;;;10.90;99.90;;;;;;5091946;28;20647;-59
2023/10/05 06:57:44;;;;;;;0.00;0.00;;;11.00;99.90;;;;;;5091764;28;20206;-59
2023/10/05 07:00:12;;;;;;;0.00;0.00;;;11.10;99.90;;;;;;5091832;28;20268;-59
2023/10/05 07:02:41;;;;;;;0.00;0.00;;;11.10;99.90;;;;;;5091579;28;20692;-58
2023/10/05 07:05:07;;;;;;;0.00;0.00;;;11.10;99.90;;;;;;5091742;28;20176;-58
2023/10/05 07:07:36;;;;;;;0.00;0.00;;;11.20;99.90;;;;;;5091580;28;20202;-58
2023/10/05 07:10:06;;;;;;;0.00;0.00;;;11.30;99.90;;;;;;5091496;28;20509;-59
2023/10/05 07:12:35;;;;;;;0.00;0.00;;;11.40;99.90;;;;;;5091580;28;20176;-59
2023/10/05 07:15:01;;;;;;;0.00;0.00;;;11.50;99.90;;;;;;5091493;28;20191;-59
2023/10/05 07:17:28;;;;;;;0.00;0.00;;;11.60;99.90;;;;;;5091855;28;20533;-59
2023/10/05 07:19:54;;;;;;;0.00;0.00;;;11.80;99.90;;;;;;5091368;28;20211;-59
2023/10/05 07:22:20;;;;;;;0.00;0.00;;;12.00;99.90;;;;;;5091425;28;20176;-59
2023/10/05 07:24:46;;;;;;;0.00;0.00;;;12.10;99.90;;;;;;5091520;28;20176;-58
2023/10/05 07:27:12;;;;;;;0.00;0.00;;;12.30;99.90;;;;;;5091458;28;20188;-59
2023/10/05 07:29:37;;;;;;;0.00;0.00;;;12.50;99.90;;;;;;5091316;28;20581;-59
2023/10/05 07:32:06;;;;;;;0.00;0.00;;;12.60;99.90;;;;;;5091527;28;20175;-59
2023/10/05 07:34:31;;;;;;;0.00;0.00;;;12.80;99.90;;;;;;5091456;28;20176;-59
2023/10/05 07:37:02;;;;;;;0.00;0.00;;;13.10;99.90;;;;;;5091462;28;20271;-59
2023/10/05 07:39:28;;;;;;;0.00;0.00;;;13.40;99.90;;;;;;5091133;28;20263;-60
2023/10/05 07:41:54;;;;;;;0.00;0.00;;;13.70;99.90;;;;;;5091308;28;20257;-60
2023/10/05 07:44:19;;;;;;;0.00;0.00;;;13.80;99.90;;;;;;5091247;28;20168;-59
2023/10/05 07:46:46;;;;;;;0.00;0.00;;;14.00;99.90;;;;;;5091314;28;20204;-60
2023/10/05 07:49:13;;;;;;;0.20;0.20;;;14.00;99.90;;;;;;5091917;28;20255;-59
2023/10/05 07:51:38;;;;;;;0.10;0.10;;;14.10;99.90;;;;;;5095244;28;20213;-60
2023/10/05 07:54:05;;;;;;;0.10;0.10;;;14.20;99.90;;;;;;5095297;28;20634;-60
2023/10/05 07:56:32;;;;;;;0.05;0.05;;;14.40;99.90;;;;;;5095178;28;20647;-60
2023/10/05 07:58:58;;;;;;;0.00;0.00;;;14.70;99.90;;;;;;5095122;28;20229;-60
2023/10/05 08:01:25;;;;;;;0.03;0.03;;;14.90;99.90;;;;;;5095078;28;20665;-59
2023/10/05 08:03:51;;;;;;;0.28;0.28;;;14.90;99.90;;;;;;5095000;28;20219;-60
2023/10/05 08:06:17;;;;;;;0.00;0.00;;;14.80;99.90;;;;;;5095212;28;20184;-59
2023/10/05 08:08:44;;;;;;;0.00;0.00;;;14.80;99.90;;;;;;5094949;28;20172;-60
2023/10/05 08:11:15;;;;;;;0.00;0.00;;;15.00;99.90;;;;;;5094931;28;20179;-60
2023/10/05 08:13:41;;;;;;;0.00;0.00;;;15.00;99.90;;;;;;5094768;28;20180;-60
2023/10/05 08:16:08;;;;;;;0.00;0.00;;;15.20;99.90;;;;;;5094802;28;20427;-59
2023/10/05 08:18:34;;;;;;;0.00;0.00;;;15.30;99.90;;;;;;5094737;28;20271;-60
2023/10/05 08:21:00;;;;;;;0.00;0.00;;;15.30;99.90;;;;;;5094516;28;20540;-59
2023/10/05 08:23:25;;;;;;;0.00;0.00;;;15.20;99.90;;;;;;5094632;28;20221;-60
2023/10/05 08:25:51;;;;;;;0.00;0.00;;;15.30;99.90;;;;;;5094558;28;20270;-59
2023/10/05 08:28:20;;;;;;;0.00;0.00;;;15.50;99.90;;;;;;5094659;28;20176;-59
2023/10/05 08:30:57;;;;;;;0.00;0.00;;;15.80;99.90;;;;;;5094561;28;20210;-59
2023/10/05 08:33:26;;;;;;;0.00;0.00;;;16.30;99.90;;;;;;5094649;28;20183;-59
2023/10/05 08:35:52;;;;;;;0.00;0.00;;;17.00;99.90;;;;;;5094546;28;20180;-59
2023/10/05 08:38:17;;;;;;;0.00;0.00;;;17.50;99.90;;;;;;5094260;28;20245;-59
2023/10/05 08:40:45;;;;;;;0.00;0.00;;;17.90;99.90;;;;;;5094398;28;20261;-59
2023/10/05 08:43:12;;;;;;;0.00;0.00;;;18.00;99.90;;;;;;5094498;28;20174;-58
2023/10/05 08:45:46;;;;;;;0.00;0.00;;;18.20;99.90;;;;;;5094171;28;20215;-59
2023/10/05 08:48:18;;;;;;;0.00;0.00;;;18.10;99.70;;;;;;5094346;28;20172;-59
2023/10/05 08:50:46;;;;;;;0.00;0.00;;;17.90;99.50;;;;;;5094266;28;20643;-58
2023/10/05 08:53:13;;;;;;;0.00;0.00;;;17.80;99.70;;;;;;5094232;28;20180;-59
2023/10/05 08:55:42;;;;;;;0.00;0.00;;;17.70;99.80;;;;;;5093846;28;20176;-59
2023/10/05 08:58:09;;;;;;;0.00;0.00;;;17.70;99.90;;;;;;5094069;28;20171;-59
2023/10/05 09:00:38;;;;;;;0.00;0.00;;;17.80;99.90;;;;;;5093011;28;20196;-59
2023/10/05 09:03:28;;;;;;;0.00;0.00;;;17.80;99.90;;;;;;5093676;28;20183;-59
2023/10/05 09:06:13;;;;;;;0.00;0.00;;;17.80;99.90;;;;;;5093771;28;20595;-58
2023/10/05 09:11:31;;;;;;;0.00;0.00;;;18.10;99.90;;;;;;5093807;28;20196;-60
2023/10/05 09:14:13;;;;;;;0.00;0.00;;;18.30;99.90;;;;;;5093687;28;20259;-59
2023/10/05 09:16:43;;;;;;;0.00;0.00;;;18.50;99.90;;;;;;5093521;28;20669;-58
2023/10/05 09:19:17;;;;;;;0.00;0.00;;;18.70;99.80;;;;;;5093613;28;20667;-58
2023/10/05 09:22:10;;;;;;;0.00;0.00;;;19.00;99.50;;;;;;5093487;28;20224;-58
2023/10/05 09:24:36;;;;;;;0.00;0.00;;;19.00;99.30;;;;;;5093529;28;20639;-60
2023/10/05 09:27:17;;;;;;;0.00;0.00;;;18.90;99.20;;;;;;5093434;28;20211;-60
2023/10/05 09:29:43;;;;;;;0.08;0.08;;;18.80;98.50;;;;;;5093218;28;20643;-60
2023/10/05 09:32:26;;;;;;;0.10;0.10;;;18.80;98.80;;;;;;5093400;28;20241;-60
2023/10/05 09:34:56;;;;;;;0.00;0.00;;;18.80;99.20;;;;;;5093283;28;20172;-59
2023/10/05 09:37:24;;;;;;;0.00;0.00;;;18.90;99.30;;;;;;5092968;28;20650;-61
2023/10/05 09:39:53;;;;;;;0.00;0.00;;;18.80;98.90;;;;;;5093160;28;20263;-60
2023/10/05 09:42:26;;;;;;;0.00;0.00;;;18.70;99.20;;;;;;5092992;28;20575;-60
2023/10/05 09:45:06;;;;;;;0.00;0.00;;;18.70;98.80;;;;;;5093130;28;20628;-59
2023/10/05 09:47:33;;;;;;;0.00;0.00;;;18.80;98.30;;;;;;5091979;28;20582;-60
2023/10/05 09:50:02;;;;;;;0.00;0.00;;;18.90;98.40;;;;;;5093017;28;20208;-59
2023/10/05 09:52:38;;;;;;;0.00;0.00;;;19.10;98.20;;;;;;5092927;28;20678;-60
2023/10/05 09:55:07;;;;;;;0.00;0.00;;;19.20;97.90;;;;;;5093020;28;20235;-59
2023/10/05 09:57:46;;;;;;;0.00;0.00;;;19.20;97.90;;;;;;5092832;28;20200;-59
2023/10/05 10:00:27;;;;;;;0.00;0.00;;;19.20;98.10;;;;;;5092867;28;20200;-59
2023/10/05 10:03:03;;;;;;;0.00;0.00;;;19.20;98.40;;;;;;5092827;28;20192;-59
2023/10/05 10:05:33;;;;;;;0.10;0.10;;;19.30;97.80;;;;;;5092642;28;20651;-60
2023/10/05 10:08:14;;;;;;;0.00;0.00;;;19.40;98.10;;;;;;5092549;28;20654;-60
2023/10/05 10:10:51;;;;;;;0.00;0.00;;;19.60;97.90;;;;;;5092520;28;20274;-59
2023/10/05 10:13:21;;;;;;;0.00;0.00;;;19.90;97.80;;;;;;5092270;28;20536;-59
2023/10/05 10:15:49;;;;;;;0.00;0.00;;;19.80;96.90;;;;;;5092437;28;20718;-60
2023/10/05 10:18:15;;;;;;;0.00;0.00;;;19.90;96.90;;;;;;5092590;28;20180;-59
2023/10/05 10:20:49;;;;;;;0.00;0.00;;;20.00;96.80;;;;;;5092136;28;20223;-59
2023/10/05 10:23:22;;;;;;;0.00;0.00;;;20.00;97.10;;;;;;5092490;28;20175;-60
2023/10/05 10:25:50;;;;;;;0.00;0.00;;;20.00;96.40;;;;;;5092378;28;20651;-59
2023/10/05 10:31:30;;;;;;;0.00;0.00;;;20.40;96.70;;;;;;5092608;28;20202;-59
2023/10/05 10:34:10;;;;;;;0.00;0.00;;;20.60;96.50;;;;;;5092229;28;20176;-59
2023/10/05 10:36:51;;;;;;;0.00;0.00;;;20.70;96.30;;;;;;5092224;28;20257;-59
2023/10/05 10:39:23;;;;;;;0.00;0.00;;;20.80;94.60;;;;;;5092008;28;20224;-59
2023/10/05 10:42:07;;;;;;;0.10;0.10;;;20.70;95.00;;;;;;5091954;28;20211;-60
2023/10/05 10:47:16;;;;;;;0.00;0.00;;;20.90;94.40;;;;;;5092194;28;20176;-59
2023/10/05 10:50:15;;;;;;;0.00;0.00;;;20.80;94.30;;;;;;5091888;28;20700;-59
2023/10/05 10:52:43;;;;;;;0.00;0.00;;;21.20;94.20;;;;;;5091821;28;20184;-59
2023/10/05 10:55:14;;;;;;;0.00;0.00;;;21.40;93.50;;;;;;5091933;28;20176;-60
2023/10/05 10:57:42;;;;;;;0.00;0.00;;;21.40;92.30;;;;;;5091727;28;20211;-60
2023/10/05 11:02:56;;;;;;;0.00;0.00;;;21.50;91.90;;;;;;5092319;28;20202;-60
2023/10/05 11:05:24;;;;;;;0.00;0.00;;;21.30;92.10;;;;;;5091771;28;20200;-59
2023/10/05 11:07:50;;;;;;;0.00;0.00;;;21.00;92.60;;;;;;5091636;28;20238;-59
2023/10/05 11:10:20;;;;;;;0.00;0.00;;;20.70;92.40;;;;;;5090481;28;20192;-59
2023/10/05 11:12:57;;;;;;;0.05;0.05;;;20.80;92.90;;;;;;5091644;28;20702;-60
2023/10/05 11:15:28;;;;;;;0.00;0.00;;;20.60;92.80;;;;;;5091588;28;20638;-59
2023/10/05 11:17:58;;;;;;;0.00;0.00;;;20.40;92.00;;;;;;5091638;28;20180;-59
2023/10/05 11:20:33;;;;;;;0.00;0.00;;;20.30;92.10;;;;;;5091596;28;20188;-59
2023/10/05 11:23:03;;;;;;;0.00;0.00;;;20.20;92.40;;;;;;5091656;28;20184;-59
2023/10/05 11:25:34;;;;;;;0.00;0.00;;;20.10;92.90;;;;;;5094448;28;20176;-59
2023/10/05 11:28:00;;;;;;;0.00;0.00;;;19.80;93.00;;;;;;5095791;28;20180;-59
2023/10/05 11:30:41;;;;;;;0.00;0.00;;;19.50;93.60;;;;;;5095687;28;20225;-60
2023/10/05 11:33:15;;;;;;;0.03;0.03;;;19.30;93.90;;;;;;5095877;28;20275;-59
2023/10/05 11:35:48;;;;;;;0.00;0.00;;;19.20;94.30;;;;;;5095538;28;20224;-59
2023/10/05 11:38:15;;;;;;;0.00;0.00;;;19.20;93.90;;;;;;5095441;28;20714;-59
2023/10/05 11:40:49;;;;;;;0.00;0.00;;;19.20;94.30;;;;;;5095389;28;20226;-60
2023/10/05 11:43:16;;;;;;;0.00;0.00;;;19.20;93.70;;;;;;5095598;28;20172;-60
2023/10/05 11:46:48;;;;;;;0.00;0.00;;;19.20;93.90;;;;;;5095262;28;20215;-59
2023/10/05 11:48:48;;;;;;;0.00;0.00;;;19.00;93.70;;;;;;5094671;28;20199;-59
2023/10/05 11:51:19;;;;;;;0.00;0.00;;;18.90;94.20;;;;;;5095220;28;20176;-60
2023/10/05 11:53:46;;;;;;;0.00;0.00;;;18.60;94.20;;;;;;5095224;28;20195;-60
2023/10/05 11:56:15;;;;;;;0.00;0.00;;;18.50;94.30;;;;;;5095220;28;20176;-60
2023/10/05 11:58:41;;;;;;;0.00;0.00;;;18.30;94.60;;;;;;5095045;28;20169;-60
2023/10/05 12:01:07;;;;;;;0.00;0.00;;;18.10;95.20;;;;;;5095175;28;20216;-60
2023/10/05 12:03:33;;;;;;;0.00;0.00;;;18.10;95.70;;;;;;5095074;28;20534;-60
2023/10/05 12:06:08;;;;;;;0.00;0.00;;;18.10;95.70;;;;;;5094856;28;20258;-60
2023/10/05 12:08:34;;;;;;;0.00;0.00;;;18.10;95.60;;;;;;5093636;28;20178;-60
2023/10/05 12:11:00;;;;;;;0.00;0.00;;;18.10;96.00;;;;;;5094847;28;20590;-59
2023/10/05 12:13:26;;;;;;;0.00;0.00;;;18.10;96.20;;;;;;5094833;28;20175;-60
2023/10/05 12:15:52;;;;;;;0.00;0.00;;;18.10;96.30;;;;;;5095009;28;20223;-59
2023/10/05 12:18:18;;;;;;;0.00;0.00;;;18.10;96.20;;;;;;5094701;28;20211;-59
2023/10/05 12:20:45;;;;;;;0.00;0.00;;;18.10;96.00;;;;;;5094527;28;20732;-59
2023/10/05 12:23:14;;;;;;;0.00;0.00;;;18.00;95.80;;;;;;5094766;28;20219;-58
2023/10/05 12:25:41;;;;;;;0.00;0.00;;;18.00;96.20;;;;;;5094423;28;20277;-59
2023/10/05 12:28:08;;;;;;;0.00;0.00;;;17.90;96.50;;;;;;5094756;28;20187;-59
2023/10/05 12:30:35;;;;;;;0.00;0.00;;;17.90;96.70;;;;;;5094467;28;20539;-59
2023/10/05 12:33:00;;;;;;;0.00;0.00;;;17.90;96.60;;;;;;5094478;28;20176;-59
2023/10/05 12:35:29;;;;;;;0.00;0.00;;;17.80;96.50;;;;;;5094174;28;20854;-59
2023/10/05 12:37:58;;;;;;;0.00;0.00;;;17.70;96.90;;;;;;5093150;28;20216;-58
2023/10/05 12:40:33;;;;;;;0.00;0.00;;;17.60;96.80;;;;;;5094276;28;20212;-58
2023/10/05 12:42:59;;;;;;;0.00;0.00;;;17.60;96.90;;;;;;5094266;28;20179;-59
2023/10/05 12:45:25;;;;;;;0.00;0.00;;;17.50;97.00;;;;;;5094298;28;20207;-59
2023/10/05 12:47:57;;;;;;;0.05;0.05;;;17.40;96.60;;;;;;5094333;28;20260;-59
2023/10/05 12:50:25;;;;;;;0.00;0.00;;;17.40;96.90;;;;;;5094313;28;20180;-59
2023/10/05 12:52:52;;;;;;;0.00;0.00;;;17.50;96.90;;;;;;5094112;28;20204;-59
2023/10/05 12:55:22;;;;;;;0.00;0.00;;;17.40;97.10;;;;;;5094081;28;20684;-59
2023/10/05 12:57:52;;;;;;;0.00;0.00;;;17.40;96.90;;;;;;5093962;28;20643;-59
2023/10/05 13:00:28;;;;;;;0.00;0.00;;;17.40;96.90;;;;;;5093780;28;20196;-59
2023/10/05 13:02:54;;;;;;;0.00;0.00;;;17.40;97.10;;;;;;5094092;28;20184;-58
2023/10/05 13:05:22;;;;;;;0.47;0.47;;;17.40;97.30;;;;;;5093795;28;20263;-58
2023/10/05 13:07:48;;;;;;;0.00;0.00;;;17.30;97.30;;;;;;5093858;28;20188;-58
2023/10/05 13:10:21;;;;;;;0.00;0.00;;;17.40;97.20;;;;;;5093896;28;20175;-59
2023/10/05 13:12:51;;;;;;;0.00;0.00;;;17.30;97.40;;;;;;5092741;28;20176;-59
2023/10/05 13:15:19;;;;;;;0.00;0.00;;;17.30;97.60;;;;;;5093748;28;20237;-59
2023/10/05 13:17:46;;;;;;;0.00;0.00;;;17.20;97.80;;;;;;5093723;28;20263;-59
2023/10/05 13:20:14;;;;;;;0.00;0.00;;;17.20;97.80;;;;;;5093681;28;20200;-59
2023/10/05 13:22:44;;;;;;;0.00;0.00;;;17.10;98.30;;;;;;5093470;28;20202;-59
2023/10/05 13:25:10;;;;;;;0.00;0.00;;;17.10;98.30;;;;;;5093620;28;20203;-59
2023/10/05 13:27:36;;;;;;;0.00;0.00;;;17.00;98.30;;;;;;5093530;28;20168;-60
2023/10/05 13:30:03;;;;;;;0.00;0.00;;;17.00;98.60;;;;;;5092201;28;20199;-59
2023/10/05 13:32:31;;;;;;;0.00;0.00;;;17.00;98.70;;;;;;5093395;28;20187;-60
2023/10/05 13:34:57;;;;;;;0.00;0.00;;;17.00;98.60;;;;;;5093457;28;20233;-59